createdAt,value
2017-11-04T00:00:35.512Z,56.05
2017-11-04T00:03:03.834Z,64.13
2017-11-04T00:05:31.379Z,57.03
2017-11-04T00:07:58.947Z,52.70
2017-11-04T00:10:26.502Z,61.90
2017-11-04T00:12:54.059Z,54.10
2017-11-04T00:15:21.640Z,61.53
2017-11-04T00:17:49.234Z,54.67
2017-11-04T00:20:16.798Z,54.47
2017-11-04T00:22:44.366Z,54.70
2017-11-04T00:25:12.719Z,49.73
2017-11-04T00:27:40.278Z,51.77
2017-11-04T00:30:07.854Z,54.37
2017-11-04T00:32:36.178Z,50.10
2017-11-04T00:35:03.755Z,51.40
2017-11-04T00:37:31.311Z,55.00
2017-11-04T00:39:58.897Z,47.83
2017-11-04T00:42:26.459Z,51.92
2017-11-04T00:44:54.049Z,54.90
2017-11-04T00:47:22.357Z,55.80
2017-11-04T00:49:49.957Z,48.30
2017-11-04T00:52:17.510Z,53.53
2017-11-04T00:54:45.072Z,52.33
2017-11-04T00:57:12.629Z,50.70
2017-11-04T00:59:40.179Z,52.70
2017-11-04T01:02:07.755Z,51.40
2017-11-04T01:04:35.311Z,57.38
2017-11-04T01:07:02.888Z,58.33
2017-11-04T01:09:31.258Z,52.08
2017-11-04T01:11:58.805Z,54.37
2017-11-04T01:14:26.406Z,64.93
2017-11-04T01:16:54.725Z,56.57
2017-11-04T01:19:22.301Z,54.70
2017-11-04T01:21:49.878Z,57.47
2017-11-04T01:24:17.431Z,62.00
2017-11-04T01:26:44.988Z,51.80
2017-11-04T01:29:12.553Z,51.40
2017-11-04T01:31:40.120Z,51.67
2017-11-04T01:34:11.267Z,51.10
2017-11-04T01:36:38.862Z,54.63
2017-11-04T01:39:06.421Z,53.80
2017-11-04T01:41:33.970Z,53.07
2017-11-04T01:44:01.539Z,53.35
2017-11-04T01:46:29.097Z,50.87
2017-11-04T01:48:56.634Z,52.80
2017-11-04T01:51:24.966Z,55.83
2017-11-04T01:53:52.024Z,59.60
2017-11-04T01:56:19.614Z,62.20
2017-11-04T01:58:47.159Z,82.33
2017-11-04T02:01:14.745Z,72.22
2017-11-04T02:03:43.051Z,65.80
2017-11-04T02:06:10.611Z,62.10
2017-11-04T02:08:38.189Z,58.22
2017-11-04T02:11:05.744Z,62.77
2017-11-04T02:13:33.297Z,59.40
2017-11-04T02:16:00.870Z,63.53
2017-11-04T02:18:28.445Z,60.00
2017-11-04T02:20:55.989Z,55.12
2017-11-04T02:23:23.560Z,57.53
2017-11-04T02:25:51.104Z,48.20
2017-11-04T02:28:18.664Z,50.55
2017-11-04T02:30:46.241Z,46.87
2017-11-04T02:33:13.787Z,46.70
2017-11-04T02:35:41.365Z,45.55
2017-11-04T02:38:08.926Z,48.45
2017-11-04T02:40:36.500Z,52.00
2017-11-04T02:43:04.069Z,50.10
2017-11-04T02:45:31.633Z,45.85
2017-11-04T02:47:59.238Z,47.75
2017-11-04T02:50:26.805Z,47.85
2017-11-04T02:52:54.369Z,51.72
2017-11-04T02:55:21.931Z,45.25
2017-11-04T02:57:49.487Z,47.87
2017-11-04T03:00:17.096Z,44.60
2017-11-04T03:02:45.445Z,45.85
2017-11-04T03:05:13.004Z,44.60
2017-11-04T03:07:52.206Z,40.72
2017-11-04T03:10:19.779Z,48.13
2017-11-04T03:12:47.341Z,42.92
2017-11-04T03:15:14.909Z,43.35
2017-11-04T03:17:42.457Z,41.97
2017-11-04T03:20:10.034Z,44.58
2017-11-04T03:22:37.601Z,43.83
2017-11-04T03:25:05.201Z,42.83
2017-11-04T03:27:32.764Z,42.03
2017-11-04T03:30:00.329Z,41.05
2017-11-04T03:32:27.879Z,43.30
2017-11-04T03:34:55.425Z,49.88
2017-11-04T03:37:23.004Z,41.55
2017-11-04T03:39:50.573Z,42.75
2017-11-04T03:42:18.123Z,41.57
2017-11-04T03:44:45.696Z,40.83
2017-11-04T03:47:13.226Z,41.43
2017-11-04T03:49:40.777Z,40.60
2017-11-04T03:52:08.352Z,38.97
2017-11-04T03:54:35.937Z,43.10
2017-11-04T03:57:04.258Z,41.67
2017-11-04T03:59:31.806Z,43.85
2017-11-04T04:01:59.362Z,41.37
2017-11-04T04:04:26.931Z,38.30
2017-11-04T04:06:54.479Z,40.73
2017-11-04T04:09:22.032Z,41.33
2017-11-04T04:11:49.583Z,48.63
2017-11-04T04:14:17.914Z,41.90
2017-11-04T04:16:45.474Z,39.23
2017-11-04T04:19:13.029Z,40.10
2017-11-04T04:21:40.574Z,37.88
2017-11-04T04:24:08.133Z,38.70
2017-11-04T04:26:35.682Z,33.97
2017-11-04T04:29:03.222Z,41.20
2017-11-04T04:31:30.813Z,38.55
2017-11-04T04:33:58.394Z,37.17
2017-11-04T04:36:25.973Z,34.97
2017-11-04T04:38:53.533Z,35.70
2017-11-04T04:41:21.121Z,35.50
2017-11-04T04:43:49.437Z,34.03
2017-11-04T04:46:17.074Z,32.80
2017-11-04T04:48:44.635Z,34.73
2017-11-04T04:51:12.196Z,36.57
2017-11-04T04:53:39.758Z,36.50
2017-11-04T04:56:07.347Z,36.10
2017-11-04T04:58:34.937Z,34.70
2017-11-04T05:01:02.475Z,35.67
2017-11-04T05:03:30.025Z,39.20
2017-11-04T05:05:57.610Z,39.93
2017-11-04T05:08:25.170Z,34.93
2017-11-04T05:10:52.718Z,37.90
2017-11-04T05:13:20.303Z,38.00
2017-11-04T05:15:48.630Z,35.17
2017-11-04T05:18:16.207Z,37.07
2017-11-04T05:20:43.790Z,33.78
2017-11-04T05:23:11.352Z,39.03
2017-11-04T05:25:39.079Z,41.05
2017-11-04T05:28:06.624Z,36.53
2017-11-04T05:30:34.190Z,42.47
2017-11-04T05:33:01.747Z,44.47
2017-11-04T05:35:29.305Z,43.70
2017-11-04T05:37:56.870Z,39.43
2017-11-04T05:40:24.429Z,40.08
2017-11-04T05:42:52.001Z,39.72
2017-11-04T05:45:19.550Z,40.80
2017-11-04T05:47:47.126Z,43.60
2017-11-04T05:50:14.680Z,44.57
2017-11-04T05:52:42.228Z,50.40
2017-11-04T05:55:09.807Z,47.33
2017-11-04T05:57:37.374Z,48.50
2017-11-04T06:00:04.960Z,42.72
2017-11-04T06:02:32.532Z,50.30
2017-11-04T06:05:00.853Z,48.20
2017-11-04T06:07:28.401Z,48.00
2017-11-04T06:09:55.972Z,55.80
2017-11-04T06:12:23.517Z,56.57
2017-11-04T06:14:51.075Z,56.50
2017-11-04T06:17:18.633Z,52.23
2017-11-04T06:19:46.949Z,49.20
2017-11-04T06:22:14.510Z,60.10
2017-11-04T06:24:42.050Z,49.37
2017-11-04T06:27:09.598Z,48.60
2017-11-04T06:29:37.154Z,59.43
2017-11-04T06:32:04.726Z,51.37
2017-11-04T06:34:32.303Z,56.67
2017-11-04T06:36:59.875Z,58.70
2017-11-04T06:39:27.427Z,114.40
2017-11-04T06:41:54.962Z,65.30
2017-11-04T06:44:22.538Z,59.50
2017-11-04T06:46:50.133Z,63.70
2017-11-04T06:49:17.682Z,60.93
2017-11-04T06:51:45.235Z,57.33
2017-11-04T06:54:12.793Z,56.33
2017-11-04T06:56:40.361Z,54.40
2017-11-04T06:59:07.917Z,56.00
2017-11-04T07:01:35.470Z,62.30
2017-11-04T07:04:03.023Z,54.60
2017-11-04T07:06:30.561Z,58.07
2017-11-04T07:08:58.122Z,48.13
2017-11-04T07:11:25.683Z,57.10
2017-11-04T07:13:53.257Z,57.93
2017-11-04T07:16:20.818Z,52.23
2017-11-04T07:18:48.378Z,52.63
2017-11-04T07:21:15.929Z,51.07
2017-11-04T07:23:43.509Z,49.93
2017-11-04T07:26:11.080Z,53.13
2017-11-04T07:28:38.651Z,46.97
2017-11-04T07:31:06.187Z,52.17
2017-11-04T07:33:33.734Z,48.57
2017-11-04T07:36:01.295Z,49.57
2017-11-04T07:38:28.857Z,53.80
2017-11-04T07:40:56.418Z,48.73
2017-11-04T07:43:23.971Z,50.37
2017-11-04T07:45:51.577Z,44.73
2017-11-04T07:48:19.118Z,48.80
2017-11-04T07:50:46.700Z,48.80
2017-11-04T07:53:15.011Z,46.20
2017-11-04T07:55:42.566Z,41.70
2017-11-04T07:58:10.113Z,47.00
2017-11-04T08:00:38.433Z,46.30
2017-11-04T08:03:06.058Z,41.80
2017-11-04T08:05:33.635Z,41.67
2017-11-04T08:08:01.184Z,43.03
2017-11-04T08:10:28.742Z,43.77
2017-11-04T08:12:56.311Z,46.30
2017-11-04T08:15:23.880Z,40.90
2017-11-04T08:17:51.467Z,39.77
2017-11-04T08:20:19.072Z,37.97
2017-11-04T08:22:47.434Z,34.57
2017-11-04T08:25:14.984Z,44.00
2017-11-04T08:27:42.584Z,41.30
2017-11-04T08:30:10.892Z,38.93
2017-11-04T08:32:38.439Z,41.17
2017-11-04T08:35:05.978Z,38.53
2017-11-04T08:37:34.297Z,38.50
2017-11-04T08:40:01.899Z,42.03
2017-11-04T08:42:30.302Z,40.27
2017-11-04T08:44:57.888Z,53.60
2017-11-04T08:47:25.462Z,38.50
2017-11-04T08:49:53.037Z,37.23
2017-11-04T08:52:20.610Z,37.63
2017-11-04T08:54:48.186Z,36.33
2017-11-04T08:57:16.518Z,34.53
2017-11-04T08:59:44.091Z,33.67
2017-11-04T09:02:11.691Z,37.23
2017-11-04T09:04:40.012Z,33.17
2017-11-04T09:07:07.590Z,32.57
2017-11-04T09:09:35.178Z,36.53
2017-11-04T09:12:03.504Z,32.20
2017-11-04T09:14:31.078Z,31.97
2017-11-04T09:16:58.629Z,39.40
2017-11-04T09:19:26.201Z,32.50
2017-11-04T09:21:53.769Z,39.43
2017-11-04T09:24:21.337Z,31.53
2017-11-04T09:26:48.892Z,33.70
2017-11-04T09:29:16.470Z,34.37
2017-11-04T09:31:44.030Z,33.57
2017-11-04T09:34:11.582Z,32.70
2017-11-04T09:36:40.025Z,29.67
2017-11-04T09:39:07.566Z,32.47
2017-11-04T09:41:35.129Z,38.00
2017-11-04T09:44:02.669Z,30.17
2017-11-04T09:46:31.005Z,32.17
2017-11-04T09:48:58.576Z,30.27
2017-11-04T09:51:26.131Z,31.77
2017-11-04T09:53:53.698Z,32.57
2017-11-04T09:56:21.283Z,33.13
2017-11-04T09:58:49.607Z,36.63
2017-11-04T10:01:17.156Z,32.07
2017-11-04T10:03:44.818Z,33.90
2017-11-04T10:06:13.659Z,30.57
2017-11-04T10:08:42.049Z,39.17
2017-11-04T10:11:10.435Z,36.37
2017-11-04T10:13:46.240Z,33.87
2017-11-04T10:16:35.010Z,34.33
2017-11-04T10:21:56.055Z,37.07
2017-11-04T10:24:23.614Z,36.97
2017-11-04T10:26:51.203Z,35.87
2017-11-04T10:29:18.770Z,36.53
2017-11-04T10:31:46.359Z,41.40
2017-11-04T10:34:14.704Z,41.87
2017-11-04T10:36:42.277Z,39.77
2017-11-04T10:39:09.881Z,41.50
2017-11-04T10:41:37.438Z,37.00
2017-11-04T10:44:04.973Z,47.83
2017-11-04T10:46:33.291Z,39.40
2017-11-04T10:49:00.868Z,42.23
2017-11-04T10:51:28.459Z,42.33
2017-11-04T10:53:56.020Z,43.47
2017-11-04T10:56:23.584Z,40.80
2017-11-04T10:58:51.141Z,43.03
2017-11-04T11:01:18.706Z,41.77
2017-11-04T11:03:46.269Z,39.40
2017-11-04T11:06:14.631Z,39.20
2017-11-04T11:08:42.202Z,41.37
2017-11-04T11:11:09.755Z,46.47
2017-11-04T11:13:37.325Z,41.67
2017-11-04T11:16:05.669Z,40.33
2017-11-04T11:18:33.231Z,46.43
2017-11-04T11:21:00.790Z,43.23
2017-11-04T11:23:28.345Z,42.20
2017-11-04T11:25:55.886Z,39.73
2017-11-04T11:28:23.465Z,36.17
2017-11-04T11:30:51.004Z,37.33
2017-11-04T11:33:18.566Z,41.10
2017-11-04T11:35:46.141Z,38.00
2017-11-04T11:38:13.697Z,38.90
2017-11-04T11:40:41.257Z,38.97
2017-11-04T11:43:08.810Z,38.00
2017-11-04T11:45:36.398Z,40.47
2017-11-04T11:48:03.983Z,39.00
2017-11-04T11:50:31.558Z,37.47
2017-11-04T11:52:59.922Z,39.40
2017-11-04T11:55:27.504Z,39.43
2017-11-04T11:57:55.822Z,43.03
2017-11-04T12:00:23.388Z,45.60
2017-11-04T12:02:50.929Z,39.80
2017-11-04T12:05:18.498Z,39.80
2017-11-04T12:07:46.409Z,42.67
2017-11-04T12:10:14.056Z,39.63
2017-11-04T12:12:41.617Z,35.00
2017-11-04T12:15:09.162Z,39.27
2017-11-04T12:17:36.710Z,37.13
2017-11-04T12:20:04.256Z,36.87
2017-11-04T12:22:31.815Z,40.73
2017-11-04T12:24:59.377Z,39.90
2017-11-04T12:27:26.937Z,37.33
2017-11-04T12:29:55.688Z,33.80
2017-11-04T12:32:23.270Z,34.43
2017-11-04T12:34:51.605Z,44.80
2017-11-04T12:37:19.196Z,41.30
2017-11-04T12:39:46.782Z,42.30
2017-11-04T12:42:15.106Z,38.53
2017-11-04T12:44:42.654Z,36.10
2017-11-04T12:47:10.219Z,35.80
2017-11-04T12:49:37.790Z,39.67
2017-11-04T12:52:05.399Z,35.20
2017-11-04T12:54:33.777Z,30.87
2017-11-04T12:57:02.096Z,30.43
2017-11-04T12:59:29.666Z,32.13
2017-11-04T13:01:57.219Z,34.20
2017-11-04T13:04:24.786Z,39.90
2017-11-04T13:06:52.470Z,33.93
2017-11-04T13:09:20.078Z,32.53
2017-11-04T13:11:47.621Z,29.10
2017-11-04T13:14:15.181Z,26.53
2017-11-04T13:16:43.499Z,35.63
2017-11-04T13:19:11.110Z,32.80
2017-11-04T13:21:38.700Z,26.57
2017-11-04T13:24:06.282Z,23.50
2017-11-04T13:26:33.846Z,25.73
2017-11-04T13:29:01.445Z,24.03
2017-11-04T13:31:29.906Z,34.47
2017-11-04T13:33:57.510Z,32.03
2017-11-04T13:36:25.771Z,25.07
2017-11-04T13:38:54.103Z,25.40
2017-11-04T13:41:21.670Z,24.60
2017-11-04T13:43:49.279Z,26.73
2017-11-04T13:46:16.887Z,31.13
2017-11-04T13:48:44.485Z,26.50
2017-11-04T13:51:12.826Z,24.60
2017-11-04T13:53:40.416Z,22.50
2017-11-04T13:56:08.732Z,22.60
2017-11-04T13:58:36.290Z,23.30
2017-11-04T14:01:03.878Z,20.47
2017-11-04T14:03:31.417Z,22.20
2017-11-04T14:05:58.984Z,19.27
2017-11-04T14:08:26.535Z,16.53
2017-11-04T14:10:54.121Z,20.83
2017-11-04T14:13:21.693Z,14.90
2017-11-04T14:15:49.249Z,16.30
2017-11-04T14:18:16.824Z,15.87
2017-11-04T14:20:44.382Z,21.27
2017-11-04T14:23:11.950Z,18.33
2017-11-04T14:25:39.505Z,15.57
2017-11-04T14:28:07.062Z,18.80
2017-11-04T14:30:34.628Z,21.00
2017-11-04T14:33:02.978Z,14.03
2017-11-04T14:35:30.530Z,14.80
2017-11-04T14:37:58.896Z,14.47
2017-11-04T14:40:26.472Z,18.20
2017-11-04T14:42:54.042Z,18.00
2017-11-04T14:45:21.600Z,15.67
2017-11-04T14:47:49.173Z,18.30
2017-11-04T14:50:16.746Z,21.00
2017-11-04T14:52:44.302Z,16.40
2017-11-04T14:55:11.852Z,14.80
2017-11-04T14:57:39.439Z,18.17
2017-11-04T15:00:07.749Z,17.00
2017-11-04T15:02:35.328Z,18.23
2017-11-04T15:05:02.909Z,19.53
2017-11-04T15:07:30.470Z,17.50
2017-11-04T15:09:58.060Z,17.83
2017-11-04T15:12:26.407Z,18.03
2017-11-04T15:14:54.009Z,17.60
2017-11-04T15:17:22.365Z,17.07
2017-11-04T15:19:49.940Z,16.47
2017-11-04T15:22:18.314Z,19.20
2017-11-04T15:24:46.658Z,19.17
2017-11-04T15:27:14.233Z,19.53
2017-11-04T15:29:41.820Z,23.23
2017-11-04T15:32:10.149Z,21.73
2017-11-04T15:34:37.727Z,17.40
2017-11-04T15:37:05.290Z,17.07
2017-11-04T15:39:32.846Z,17.80
2017-11-04T15:42:00.462Z,19.17
2017-11-04T15:44:28.011Z,18.10
2017-11-04T15:46:56.346Z,18.03
2017-11-04T15:49:23.892Z,21.37
2017-11-04T15:51:51.491Z,16.30
2017-11-04T15:54:19.847Z,20.00
2017-11-04T15:56:47.790Z,17.90
2017-11-04T15:59:15.349Z,21.70
2017-11-04T16:01:42.929Z,20.27
2017-11-04T16:04:10.532Z,17.10
2017-11-04T16:06:38.849Z,19.23
2017-11-04T16:09:06.398Z,19.13
2017-11-04T16:11:34.130Z,17.67
2017-11-04T16:14:02.454Z,22.10
2017-11-04T16:16:30.025Z,20.87
2017-11-04T16:18:57.595Z,20.60
2017-11-04T16:21:25.160Z,22.67
2017-11-04T16:23:52.751Z,19.50
2017-11-04T16:26:21.092Z,23.37
2017-11-04T16:28:48.666Z,20.53
2017-11-04T16:31:16.383Z,19.23
2017-11-04T16:33:44.551Z,27.20
2017-11-04T16:36:12.106Z,23.60
2017-11-04T16:38:39.697Z,23.90
2017-11-04T16:41:07.249Z,22.37
2017-11-04T16:43:34.818Z,29.30
2017-11-04T16:46:02.401Z,27.47
2017-11-04T16:48:29.994Z,25.10
2017-11-04T16:50:57.585Z,26.03
2017-11-04T16:53:25.128Z,20.70
2017-11-04T16:55:52.698Z,26.50
2017-11-04T16:58:20.295Z,21.37
2017-11-04T17:00:47.854Z,20.10
2017-11-04T17:03:16.230Z,25.87
2017-11-04T17:05:52.298Z,24.93
2017-11-04T17:08:25.790Z,31.67
2017-11-04T17:10:53.349Z,30.53
2017-11-04T17:13:21.685Z,30.47
2017-11-04T17:15:49.670Z,34.47
2017-11-04T17:18:17.220Z,31.17
2017-11-04T17:20:44.820Z,29.47
2017-11-04T17:23:12.367Z,27.10
2017-11-04T17:25:40.713Z,28.20
2017-11-04T17:28:08.266Z,34.27
2017-11-04T17:30:35.829Z,35.47
2017-11-04T17:33:03.461Z,31.93
2017-11-04T17:35:31.037Z,30.90
2017-11-04T17:37:58.590Z,31.40
2017-11-04T17:40:26.152Z,36.17
2017-11-04T17:42:53.742Z,32.20
2017-11-04T17:45:21.292Z,30.50
2017-11-04T17:47:48.873Z,33.27
2017-11-04T17:50:16.459Z,32.53
2017-11-04T17:52:44.046Z,28.53
2017-11-04T17:55:11.618Z,35.83
2017-11-04T17:57:39.683Z,27.57
2017-11-04T18:00:07.250Z,28.07
2017-11-04T18:02:34.821Z,28.40
2017-11-04T18:05:02.375Z,27.90
2017-11-04T18:07:29.930Z,23.20
2017-11-04T18:09:57.496Z,22.70
2017-11-04T18:12:25.042Z,26.30
2017-11-04T18:14:52.606Z,21.90
2017-11-04T18:17:20.167Z,27.37
2017-11-04T18:19:47.761Z,28.90
2017-11-04T18:22:15.356Z,33.07
2017-11-04T18:24:42.940Z,25.77
2017-11-04T18:27:10.523Z,27.70
2017-11-04T18:29:38.253Z,25.47
2017-11-04T18:32:05.939Z,23.07
2017-11-04T18:34:33.504Z,26.40
2017-11-04T18:37:01.072Z,34.30
2017-11-04T18:39:28.749Z,24.43
2017-11-04T18:41:56.357Z,28.87
2017-11-04T18:44:24.792Z,29.43
2017-11-04T18:46:54.205Z,26.80
2017-11-04T18:49:22.789Z,27.13
2017-11-04T18:51:50.730Z,26.00
2017-11-04T18:54:18.323Z,27.43
2017-11-04T18:56:45.937Z,34.40
2017-11-04T18:59:14.355Z,28.70
2017-11-04T19:01:42.118Z,36.27
2017-11-04T19:04:10.944Z,36.30
2017-11-04T19:06:38.558Z,34.03
2017-11-04T19:09:06.174Z,36.13
2017-11-04T19:11:34.590Z,40.27
2017-11-04T19:14:02.470Z,32.70
2017-11-04T19:16:30.679Z,31.10
2017-11-04T19:18:58.462Z,29.20
2017-11-04T19:21:26.840Z,25.40
2017-11-04T19:23:55.247Z,29.07
2017-11-04T19:26:23.036Z,23.90
2017-11-04T19:28:50.618Z,33.30
2017-11-04T19:31:18.222Z,26.23
2017-11-04T19:33:46.541Z,32.23
2017-11-04T19:36:14.118Z,34.40
2017-11-04T19:38:41.668Z,26.77
2017-11-04T19:41:09.238Z,29.17
2017-11-04T19:43:36.812Z,33.83
2017-11-04T19:46:04.371Z,29.13
2017-11-04T19:48:31.953Z,28.87
2017-11-04T19:50:59.578Z,29.37
2017-11-04T19:53:27.146Z,27.53
2017-11-04T19:55:54.842Z,28.23
2017-11-04T19:58:22.398Z,26.90
2017-11-04T20:00:50.927Z,24.67
2017-11-04T20:03:18.483Z,25.20
2017-11-04T20:05:46.061Z,27.07
2017-11-04T20:08:13.606Z,24.13
2017-11-04T20:10:41.191Z,22.10
2017-11-04T20:13:08.764Z,23.30
2017-11-04T20:15:37.562Z,25.30
2017-11-04T20:18:05.912Z,25.40
2017-11-04T20:20:33.515Z,25.30
2017-11-04T20:23:01.120Z,23.63
2017-11-04T20:25:28.705Z,26.13
2017-11-04T20:27:56.262Z,23.40
2017-11-04T20:30:23.821Z,24.83
2017-11-04T20:32:51.403Z,24.70
2017-11-04T20:35:19.748Z,30.60
2017-11-04T20:37:47.340Z,28.03
2017-11-04T20:40:15.682Z,27.40
2017-11-04T20:42:43.269Z,24.10
2017-11-04T20:45:11.598Z,25.10
2017-11-04T20:47:39.157Z,26.83
2017-11-04T20:50:06.806Z,27.30
2017-11-04T20:52:34.425Z,26.20
2017-11-04T20:55:02.779Z,26.30
2017-11-04T20:57:30.365Z,25.83
2017-11-04T20:59:57.949Z,26.63
2017-11-04T21:02:26.323Z,22.47
2017-11-04T21:04:53.913Z,33.00
2017-11-04T21:07:21.496Z,24.37
2017-11-04T21:09:49.037Z,28.07
2017-11-04T21:12:16.603Z,24.97
2017-11-04T21:14:44.235Z,28.83
2017-11-04T21:17:12.563Z,26.03
2017-11-04T21:19:40.357Z,24.13
2017-11-04T21:22:07.969Z,24.67
2017-11-04T21:24:35.535Z,26.07
2017-11-04T21:27:03.140Z,28.33
2017-11-04T21:29:30.706Z,40.43
2017-11-04T21:31:59.092Z,40.13
2017-11-04T21:34:27.418Z,27.40
2017-11-04T21:36:54.974Z,24.40
2017-11-04T21:39:22.606Z,29.93
2017-11-04T21:41:50.176Z,21.67
2017-11-04T21:44:17.755Z,24.73
2017-11-04T21:46:45.354Z,27.13
2017-11-04T21:49:13.159Z,30.20
2017-11-04T21:51:40.785Z,27.10
2017-11-04T21:54:08.350Z,25.03
2017-11-04T21:56:35.922Z,22.37
2017-11-04T21:59:04.248Z,29.70
2017-11-04T22:01:31.820Z,22.20
2017-11-04T22:03:59.383Z,23.67
2017-11-04T22:06:26.967Z,30.93
2017-11-04T22:08:54.512Z,21.60
2017-11-04T22:11:22.072Z,24.57
2017-11-04T22:13:49.627Z,24.50
2017-11-04T22:16:17.202Z,25.20
2017-11-04T22:18:44.860Z,24.97
2017-11-04T22:21:12.963Z,30.60
2017-11-04T22:23:41.291Z,23.10
2017-11-04T22:26:08.828Z,29.67
2017-11-04T22:28:36.408Z,31.33
2017-11-04T22:31:03.959Z,33.87
2017-11-04T22:33:31.534Z,32.93
2017-11-04T22:35:59.081Z,32.00
2017-11-04T22:38:26.641Z,28.40
2017-11-04T22:40:54.187Z,34.17
2017-11-04T22:43:21.761Z,32.17
2017-11-04T22:45:49.600Z,36.13
2017-11-04T22:48:17.180Z,33.47
2017-11-04T22:50:44.760Z,29.03
2017-11-04T22:53:12.418Z,32.27
2017-11-04T22:55:39.971Z,36.00
2017-11-04T22:58:07.544Z,30.27
2017-11-04T23:03:32.707Z,38.77
2017-11-04T23:06:00.264Z,39.27
2017-11-04T23:08:27.807Z,27.00
2017-11-04T23:10:55.406Z,33.00
2017-11-04T23:13:22.974Z,28.03
2017-11-04T23:15:50.557Z,28.17
2017-11-04T23:18:19.527Z,25.90
2017-11-04T23:20:47.090Z,23.80
2017-11-04T23:23:14.674Z,34.83
2017-11-04T23:25:42.934Z,28.20
2017-11-04T23:28:10.466Z,31.30
2017-11-04T23:30:37.966Z,24.10
2017-11-04T23:33:06.258Z,26.43
2017-11-04T23:35:33.754Z,35.00
2017-11-04T23:38:01.264Z,34.57
2017-11-04T23:40:29.509Z,31.47
2017-11-04T23:42:57.053Z,29.03
2017-11-04T23:45:24.569Z,28.90
2017-11-04T23:47:52.125Z,30.00
2017-11-04T23:50:19.657Z,28.30
2017-11-04T23:52:47.943Z,25.93
2017-11-04T23:55:16.215Z,26.03
2017-11-04T23:57:44.532Z,28.40
